Paynton, Canada
Current Conditions -  °F | °C
As of 12:05 AM on Wednesday 22 Oct 2014 (Local Time) from CYQW Reporting Station
Light Rain Light Rain  
Wind Chill: 44°   Ceiling: 8500
Heat Index: 48°   Visibility: 9mi
Dew Point: 45°   Wind: 10mph
Humidity: 87%   Direction: 330°NNW
Pressure: 29.67"   Gusts: NA
Location:  53.02°N, 108.95°W
Report Text: CYQW 220505Z AUTO 33009KT 9SM -RA OVC085 09/07 A2967 RMK SLP056 DENSITY ALT 1800FT
Loading
Personal Weather Stations






























Interactive Weather Map
Tropical Storm Tracking
New forecast layout! Learn more

10-Day Weather Forecast

Advertisements
Track Severe Weather on mobile